sensor_id;sensor_type;location;lat;lon;timestamp;P1;durP1;ratioP1;P2;durP2;ratioP2
20810;SDS011;10566;52.928;10.522;2022-11-20T00:02:20;35.43;;;19.43;;
20810;SDS011;10566;52.928;10.522;2022-11-20T00:04:46;35.03;;;18.17;;
20810;SDS011;10566;52.928;10.522;2022-11-20T00:07:12;38.37;;;19.67;;
20810;SDS011;10566;52.928;10.522;2022-11-20T00:09:38;36.20;;;19.13;;
20810;SDS011;10566;52.928;10.522;2022-11-20T00:12:04;40.47;;;20.77;;
20810;SDS011;10566;52.928;10.522;2022-11-20T00:14:30;34.70;;;19.00;;
20810;SDS011;10566;52.928;10.522;2022-11-20T00:16:56;39.57;;;19.03;;
20810;SDS011;10566;52.928;10.522;2022-11-20T00:19:22;37.67;;;19.43;;
20810;SDS011;10566;52.928;10.522;2022-11-20T00:21:48;36.10;;;18.53;;
20810;SDS011;10566;52.928;10.522;2022-11-20T00:24:16;37.27;;;18.97;;
20810;SDS011;10566;52.928;10.522;2022-11-20T00:26:42;36.47;;;18.60;;
20810;SDS011;10566;52.928;10.522;2022-11-20T00:29:08;36.57;;;19.60;;
20810;SDS011;10566;52.928;10.522;2022-11-20T00:31:35;37.93;;;18.83;;
20810;SDS011;10566;52.928;10.522;2022-11-20T00:34:01;36.37;;;20.03;;
20810;SDS011;10566;52.928;10.522;2022-11-20T00:36:28;36.57;;;19.00;;
20810;SDS011;10566;52.928;10.522;2022-11-20T00:38:55;39.23;;;19.50;;
20810;SDS011;10566;52.928;10.522;2022-11-20T00:41:21;39.17;;;19.90;;
20810;SDS011;10566;52.928;10.522;2022-11-20T00:43:47;37.87;;;19.60;;
20810;SDS011;10566;52.928;10.522;2022-11-20T00:46:14;39.23;;;19.70;;
20810;SDS011;10566;52.928;10.522;2022-11-20T00:48:40;44.60;;;21.03;;
20810;SDS011;10566;52.928;10.522;2022-11-20T00:51:07;40.50;;;19.83;;
20810;SDS011;10566;52.928;10.522;2022-11-20T00:53:33;36.67;;;19.73;;
20810;SDS011;10566;52.928;10.522;2022-11-20T00:56:01;40.13;;;20.23;;
20810;SDS011;10566;52.928;10.522;2022-11-20T00:58:30;41.70;;;20.33;;
20810;SDS011;10566;52.928;10.522;2022-11-20T01:01:01;35.20;;;19.63;;
20810;SDS011;10566;52.928;10.522;2022-11-20T01:03:27;41.90;;;20.37;;
20810;SDS011;10566;52.928;10.522;2022-11-20T01:05:53;39.10;;;20.27;;
20810;SDS011;10566;52.928;10.522;2022-11-20T01:08:19;40.00;;;20.23;;
20810;SDS011;10566;52.928;10.522;2022-11-20T01:10:45;37.93;;;20.60;;
20810;SDS011;10566;52.928;10.522;2022-11-20T01:13:11;37.87;;;18.83;;
20810;SDS011;10566;52.928;10.522;2022-11-20T01:15:55;40.03;;;19.30;;
20810;SDS011;10566;52.928;10.522;2022-11-20T01:18:27;38.63;;;18.93;;
20810;SDS011;10566;52.928;10.522;2022-11-20T01:20:53;40.83;;;19.40;;
20810;SDS011;10566;52.928;10.522;2022-11-20T01:23:19;35.77;;;19.00;;
20810;SDS011;10566;52.928;10.522;2022-11-20T01:25:45;36.23;;;19.23;;
20810;SDS011;10566;52.928;10.522;2022-11-20T01:28:11;34.80;;;19.40;;
20810;SDS011;10566;52.928;10.522;2022-11-20T01:30:37;36.73;;;19.23;;
20810;SDS011;10566;52.928;10.522;2022-11-20T01:33:03;36.90;;;19.13;;
20810;SDS011;10566;52.928;10.522;2022-11-20T01:35:29;36.30;;;19.23;;
20810;SDS011;10566;52.928;10.522;2022-11-20T01:37:55;35.90;;;19.17;;
20810;SDS011;10566;52.928;10.522;2022-11-20T01:40:21;38.30;;;19.53;;
20810;SDS011;10566;52.928;10.522;2022-11-20T01:42:47;38.37;;;19.10;;
20810;SDS011;10566;52.928;10.522;2022-11-20T01:46:12;38.97;;;18.67;;
20810;SDS011;10566;52.928;10.522;2022-11-20T01:51:10;34.60;;;18.20;;
20810;SDS011;10566;52.928;10.522;2022-11-20T01:53:38;35.23;;;18.70;;
20810;SDS011;10566;52.928;10.522;2022-11-20T01:56:05;36.60;;;19.13;;
20810;SDS011;10566;52.928;10.522;2022-11-20T01:58:33;36.13;;;18.87;;
20810;SDS011;10566;52.928;10.522;2022-11-20T02:01:01;37.97;;;19.17;;
20810;SDS011;10566;52.928;10.522;2022-11-20T02:03:28;34.23;;;17.97;;
20810;SDS011;10566;52.928;10.522;2022-11-20T02:06:16;37.13;;;19.37;;
20810;SDS011;10566;52.928;10.522;2022-11-20T02:08:40;37.87;;;18.97;;
20810;SDS011;10566;52.928;10.522;2022-11-20T02:11:06;39.13;;;19.60;;
20810;SDS011;10566;52.928;10.522;2022-11-20T02:13:33;42.17;;;20.00;;
20810;SDS011;10566;52.928;10.522;2022-11-20T02:18:43;37.47;;;19.43;;
20810;SDS011;10566;52.928;10.522;2022-11-20T02:26:16;40.43;;;20.93;;
20810;SDS011;10566;52.928;10.522;2022-11-20T02:28:43;41.07;;;20.40;;
20810;SDS011;10566;52.928;10.522;2022-11-20T02:31:09;41.50;;;20.47;;
20810;SDS011;10566;52.928;10.522;2022-11-20T02:33:35;38.87;;;20.40;;
20810;SDS011;10566;52.928;10.522;2022-11-20T02:36:01;39.43;;;20.50;;
20810;SDS011;10566;52.928;10.522;2022-11-20T02:38:27;40.23;;;20.33;;
20810;SDS011;10566;52.928;10.522;2022-11-20T02:40:53;38.03;;;20.20;;
20810;SDS011;10566;52.928;10.522;2022-11-20T02:43:19;39.70;;;19.57;;
20810;SDS011;10566;52.928;10.522;2022-11-20T02:45:44;35.20;;;19.40;;
20810;SDS011;10566;52.928;10.522;2022-11-20T02:48:11;40.77;;;20.03;;
20810;SDS011;10566;52.928;10.522;2022-11-20T02:50:37;41.73;;;21.10;;
20810;SDS011;10566;52.928;10.522;2022-11-20T02:53:03;41.03;;;20.77;;
20810;SDS011;10566;52.928;10.522;2022-11-20T02:55:30;38.87;;;20.53;;
20810;SDS011;10566;52.928;10.522;2022-11-20T02:57:56;43.90;;;20.53;;
20810;SDS011;10566;52.928;10.522;2022-11-20T03:00:22;41.00;;;21.90;;
20810;SDS011;10566;52.928;10.522;2022-11-20T03:02:48;38.23;;;20.10;;
20810;SDS011;10566;52.928;10.522;2022-11-20T03:05:14;40.00;;;20.53;;
20810;SDS011;10566;52.928;10.522;2022-11-20T03:07:40;34.73;;;19.23;;
20810;SDS011;10566;52.928;10.522;2022-11-20T03:10:06;36.40;;;20.40;;
20810;SDS011;10566;52.928;10.522;2022-11-20T03:12:32;36.43;;;19.63;;
20810;SDS011;10566;52.928;10.522;2022-11-20T03:14:58;34.67;;;19.50;;
20810;SDS011;10566;52.928;10.522;2022-11-20T03:17:24;35.33;;;18.60;;
20810;SDS011;10566;52.928;10.522;2022-11-20T03:19:50;39.63;;;20.60;;
20810;SDS011;10566;52.928;10.522;2022-11-20T03:22:16;36.60;;;20.00;;
20810;SDS011;10566;52.928;10.522;2022-11-20T03:24:41;39.23;;;18.97;;
20810;SDS011;10566;52.928;10.522;2022-11-20T03:27:07;39.57;;;21.00;;
20810;SDS011;10566;52.928;10.522;2022-11-20T03:29:34;38.67;;;20.43;;
20810;SDS011;10566;52.928;10.522;2022-11-20T03:32:00;38.80;;;20.97;;
20810;SDS011;10566;52.928;10.522;2022-11-20T03:34:26;40.17;;;19.77;;
20810;SDS011;10566;52.928;10.522;2022-11-20T03:36:53;36.03;;;19.87;;
20810;SDS011;10566;52.928;10.522;2022-11-20T03:39:19;41.57;;;21.30;;
20810;SDS011;10566;52.928;10.522;2022-11-20T03:41:45;38.80;;;20.13;;
20810;SDS011;10566;52.928;10.522;2022-11-20T03:44:11;38.30;;;21.30;;
20810;SDS011;10566;52.928;10.522;2022-11-20T03:46:38;38.77;;;19.57;;
20810;SDS011;10566;52.928;10.522;2022-11-20T03:49:04;39.23;;;19.80;;
20810;SDS011;10566;52.928;10.522;2022-11-20T03:51:34;40.93;;;20.67;;
20810;SDS011;10566;52.928;10.522;2022-11-20T03:54:01;41.20;;;20.53;;
20810;SDS011;10566;52.928;10.522;2022-11-20T03:56:29;41.57;;;19.90;;
20810;SDS011;10566;52.928;10.522;2022-11-20T03:58:55;37.13;;;19.63;;
20810;SDS011;10566;52.928;10.522;2022-11-20T04:01:22;41.07;;;20.20;;
20810;SDS011;10566;52.928;10.522;2022-11-20T04:03:49;37.13;;;18.97;;
20810;SDS011;10566;52.928;10.522;2022-11-20T04:06:19;36.50;;;19.23;;
20810;SDS011;10566;52.928;10.522;2022-11-20T04:08:46;41.03;;;19.73;;
20810;SDS011;10566;52.928;10.522;2022-11-20T04:11:16;42.47;;;20.57;;
20810;SDS011;10566;52.928;10.522;2022-11-20T04:13:45;43.63;;;20.93;;
20810;SDS011;10566;52.928;10.522;2022-11-20T04:16:11;44.63;;;21.67;;
20810;SDS011;10566;52.928;10.522;2022-11-20T04:18:37;46.80;;;22.23;;
20810;SDS011;10566;52.928;10.522;2022-11-20T04:21:03;43.80;;;20.77;;
20810;SDS011;10566;52.928;10.522;2022-11-20T04:23:29;40.43;;;21.27;;
20810;SDS011;10566;52.928;10.522;2022-11-20T04:26:00;43.20;;;21.67;;
20810;SDS011;10566;52.928;10.522;2022-11-20T04:28:27;43.37;;;20.97;;
20810;SDS011;10566;52.928;10.522;2022-11-20T04:30:53;43.57;;;21.57;;
20810;SDS011;10566;52.928;10.522;2022-11-20T04:33:18;44.47;;;21.83;;
20810;SDS011;10566;52.928;10.522;2022-11-20T04:35:44;49.20;;;23.00;;
20810;SDS011;10566;52.928;10.522;2022-11-20T04:38:12;49.40;;;23.13;;
20810;SDS011;10566;52.928;10.522;2022-11-20T04:40:38;43.73;;;21.23;;
20810;SDS011;10566;52.928;10.522;2022-11-20T04:43:04;44.97;;;21.70;;
20810;SDS011;10566;52.928;10.522;2022-11-20T04:45:30;45.17;;;21.47;;
20810;SDS011;10566;52.928;10.522;2022-11-20T04:47:56;43.97;;;21.63;;
20810;SDS011;10566;52.928;10.522;2022-11-20T04:50:22;45.60;;;22.80;;
20810;SDS011;10566;52.928;10.522;2022-11-20T04:52:48;45.10;;;22.00;;
20810;SDS011;10566;52.928;10.522;2022-11-20T04:55:14;49.57;;;22.93;;
20810;SDS011;10566;52.928;10.522;2022-11-20T04:57:40;44.77;;;22.00;;
20810;SDS011;10566;52.928;10.522;2022-11-20T05:00:06;46.70;;;21.77;;
20810;SDS011;10566;52.928;10.522;2022-11-20T05:02:32;47.10;;;22.50;;
20810;SDS011;10566;52.928;10.522;2022-11-20T05:04:58;41.40;;;21.20;;
20810;SDS011;10566;52.928;10.522;2022-11-20T05:07:24;45.23;;;22.70;;
20810;SDS011;10566;52.928;10.522;2022-11-20T05:09:50;46.67;;;21.40;;
20810;SDS011;10566;52.928;10.522;2022-11-20T05:12:16;41.90;;;20.90;;
20810;SDS011;10566;52.928;10.522;2022-11-20T05:14:42;42.97;;;21.53;;
20810;SDS011;10566;52.928;10.522;2022-11-20T05:17:11;49.63;;;23.00;;
20810;SDS011;10566;52.928;10.522;2022-11-20T05:19:37;47.53;;;22.17;;
20810;SDS011;10566;52.928;10.522;2022-11-20T05:22:04;42.37;;;21.10;;
20810;SDS011;10566;52.928;10.522;2022-11-20T05:24:30;45.30;;;21.73;;
20810;SDS011;10566;52.928;10.522;2022-11-20T05:26:56;41.83;;;21.27;;
20810;SDS011;10566;52.928;10.522;2022-11-20T05:29:22;44.57;;;21.43;;
20810;SDS011;10566;52.928;10.522;2022-11-20T05:31:48;40.87;;;21.10;;
20810;SDS011;10566;52.928;10.522;2022-11-20T05:34:14;42.67;;;20.73;;
20810;SDS011;10566;52.928;10.522;2022-11-20T05:36:40;44.10;;;21.90;;
20810;SDS011;10566;52.928;10.522;2022-11-20T05:39:06;42.80;;;21.33;;
20810;SDS011;10566;52.928;10.522;2022-11-20T05:41:32;47.37;;;21.97;;
20810;SDS011;10566;52.928;10.522;2022-11-20T05:43:58;46.97;;;21.57;;
20810;SDS011;10566;52.928;10.522;2022-11-20T05:46:24;42.47;;;20.60;;
20810;SDS011;10566;52.928;10.522;2022-11-20T05:48:50;44.73;;;21.30;;
20810;SDS011;10566;52.928;10.522;2022-11-20T05:51:17;42.47;;;20.80;;
20810;SDS011;10566;52.928;10.522;2022-11-20T05:53:43;40.23;;;20.67;;
20810;SDS011;10566;52.928;10.522;2022-11-20T05:56:11;45.33;;;21.47;;
20810;SDS011;10566;52.928;10.522;2022-11-20T05:58:37;47.43;;;21.93;;
20810;SDS011;10566;52.928;10.522;2022-11-20T06:03:29;44.47;;;21.17;;
20810;SDS011;10566;52.928;10.522;2022-11-20T06:05:55;45.80;;;21.67;;
20810;SDS011;10566;52.928;10.522;2022-11-20T06:08:21;45.27;;;22.27;;
20810;SDS011;10566;52.928;10.522;2022-11-20T06:10:47;42.20;;;21.70;;
20810;SDS011;10566;52.928;10.522;2022-11-20T06:13:13;46.50;;;21.73;;
20810;SDS011;10566;52.928;10.522;2022-11-20T06:15:39;45.73;;;20.80;;
20810;SDS011;10566;52.928;10.522;2022-11-20T06:18:05;44.07;;;21.13;;
20810;SDS011;10566;52.928;10.522;2022-11-20T06:20:31;43.27;;;21.13;;
20810;SDS011;10566;52.928;10.522;2022-11-20T06:22:57;42.60;;;20.43;;
20810;SDS011;10566;52.928;10.522;2022-11-20T06:25:23;37.93;;;19.80;;
20810;SDS011;10566;52.928;10.522;2022-11-20T06:27:49;43.73;;;20.43;;
20810;SDS011;10566;52.928;10.522;2022-11-20T06:30:15;41.73;;;20.43;;
20810;SDS011;10566;52.928;10.522;2022-11-20T06:32:41;43.00;;;21.13;;
20810;SDS011;10566;52.928;10.522;2022-11-20T06:35:07;47.97;;;22.27;;
20810;SDS011;10566;52.928;10.522;2022-11-20T06:37:33;44.50;;;22.07;;
20810;SDS011;10566;52.928;10.522;2022-11-20T06:39:59;45.80;;;22.43;;
20810;SDS011;10566;52.928;10.522;2022-11-20T06:42:25;43.87;;;21.63;;
20810;SDS011;10566;52.928;10.522;2022-11-20T06:44:51;49.83;;;23.03;;
20810;SDS011;10566;52.928;10.522;2022-11-20T06:47:17;45.90;;;22.23;;
20810;SDS011;10566;52.928;10.522;2022-11-20T06:49:43;47.50;;;23.33;;
20810;SDS011;10566;52.928;10.522;2022-11-20T06:52:09;48.80;;;22.20;;
20810;SDS011;10566;52.928;10.522;2022-11-20T06:54:35;47.30;;;22.90;;
20810;SDS011;10566;52.928;10.522;2022-11-20T06:57:01;42.67;;;21.43;;
20810;SDS011;10566;52.928;10.522;2022-11-20T06:59:27;47.07;;;23.37;;
20810;SDS011;10566;52.928;10.522;2022-11-20T07:01:53;43.53;;;21.07;;
20810;SDS011;10566;52.928;10.522;2022-11-20T07:04:19;46.73;;;22.77;;
20810;SDS011;10566;52.928;10.522;2022-11-20T07:06:45;45.27;;;22.37;;
20810;SDS011;10566;52.928;10.522;2022-11-20T07:09:11;46.27;;;23.23;;
20810;SDS011;10566;52.928;10.522;2022-11-20T07:11:37;50.57;;;23.53;;
20810;SDS011;10566;52.928;10.522;2022-11-20T07:14:03;49.20;;;23.67;;
20810;SDS011;10566;52.928;10.522;2022-11-20T07:16:29;46.70;;;22.27;;
20810;SDS011;10566;52.928;10.522;2022-11-20T07:18:55;49.33;;;22.90;;
20810;SDS011;10566;52.928;10.522;2022-11-20T07:21:20;48.40;;;23.23;;
20810;SDS011;10566;52.928;10.522;2022-11-20T07:23:46;47.70;;;22.53;;
20810;SDS011;10566;52.928;10.522;2022-11-20T07:26:12;47.93;;;24.00;;
20810;SDS011;10566;52.928;10.522;2022-11-20T07:28:38;50.43;;;22.87;;
20810;SDS011;10566;52.928;10.522;2022-11-20T07:31:05;47.73;;;23.93;;
20810;SDS011;10566;52.928;10.522;2022-11-20T07:33:34;47.73;;;24.37;;
20810;SDS011;10566;52.928;10.522;2022-11-20T07:36:00;52.63;;;25.87;;
20810;SDS011;10566;52.928;10.522;2022-11-20T07:38:26;53.43;;;25.03;;
20810;SDS011;10566;52.928;10.522;2022-11-20T07:40:55;52.70;;;26.27;;
20810;SDS011;10566;52.928;10.522;2022-11-20T07:43:22;51.47;;;25.63;;
20810;SDS011;10566;52.928;10.522;2022-11-20T07:45:49;51.87;;;25.63;;
20810;SDS011;10566;52.928;10.522;2022-11-20T07:48:15;52.53;;;25.13;;
20810;SDS011;10566;52.928;10.522;2022-11-20T07:50:41;50.10;;;25.63;;
20810;SDS011;10566;52.928;10.522;2022-11-20T07:53:07;50.93;;;26.10;;
20810;SDS011;10566;52.928;10.522;2022-11-20T07:55:33;54.70;;;27.03;;
20810;SDS011;10566;52.928;10.522;2022-11-20T07:57:59;51.73;;;26.80;;
20810;SDS011;10566;52.928;10.522;2022-11-20T08:00:25;54.40;;;26.33;;
20810;SDS011;10566;52.928;10.522;2022-11-20T08:02:52;51.07;;;25.97;;
20810;SDS011;10566;52.928;10.522;2022-11-20T08:05:18;51.03;;;25.83;;
20810;SDS011;10566;52.928;10.522;2022-11-20T08:07:44;52.60;;;26.47;;
20810;SDS011;10566;52.928;10.522;2022-11-20T08:10:11;52.93;;;26.33;;
20810;SDS011;10566;52.928;10.522;2022-11-20T08:12:50;54.50;;;25.97;;
20810;SDS011;10566;52.928;10.522;2022-11-20T08:15:35;52.00;;;25.13;;
20810;SDS011;10566;52.928;10.522;2022-11-20T08:18:06;51.37;;;26.07;;
20810;SDS011;10566;52.928;10.522;2022-11-20T08:20:32;48.50;;;25.70;;
20810;SDS011;10566;52.928;10.522;2022-11-20T08:23:02;52.47;;;25.77;;
20810;SDS011;10566;52.928;10.522;2022-11-20T08:25:30;49.07;;;25.60;;
20810;SDS011;10566;52.928;10.522;2022-11-20T08:27:57;48.90;;;25.00;;
20810;SDS011;10566;52.928;10.522;2022-11-20T08:30:23;50.23;;;26.03;;
20810;SDS011;10566;52.928;10.522;2022-11-20T08:32:49;50.67;;;25.97;;
20810;SDS011;10566;52.928;10.522;2022-11-20T08:35:15;56.23;;;27.13;;
20810;SDS011;10566;52.928;10.522;2022-11-20T08:37:41;48.63;;;26.00;;
20810;SDS011;10566;52.928;10.522;2022-11-20T08:40:10;53.73;;;26.50;;
20810;SDS011;10566;52.928;10.522;2022-11-20T08:42:36;49.53;;;25.53;;
20810;SDS011;10566;52.928;10.522;2022-11-20T08:45:02;49.17;;;25.80;;
20810;SDS011;10566;52.928;10.522;2022-11-20T08:47:29;47.23;;;25.07;;
20810;SDS011;10566;52.928;10.522;2022-11-20T08:49:55;48.03;;;24.60;;
20810;SDS011;10566;52.928;10.522;2022-11-20T08:52:21;47.50;;;24.10;;
20810;SDS011;10566;52.928;10.522;2022-11-20T08:54:47;44.00;;;24.00;;
20810;SDS011;10566;52.928;10.522;2022-11-20T08:57:13;44.87;;;23.70;;
20810;SDS011;10566;52.928;10.522;2022-11-20T08:59:39;45.80;;;23.63;;
20810;SDS011;10566;52.928;10.522;2022-11-20T09:02:05;45.80;;;24.50;;
20810;SDS011;10566;52.928;10.522;2022-11-20T09:04:31;45.17;;;24.07;;
20810;SDS011;10566;52.928;10.522;2022-11-20T09:06:57;44.90;;;24.90;;
20810;SDS011;10566;52.928;10.522;2022-11-20T09:09:25;44.27;;;24.87;;
20810;SDS011;10566;52.928;10.522;2022-11-20T09:11:51;48.63;;;25.00;;
20810;SDS011;10566;52.928;10.522;2022-11-20T09:14:17;42.67;;;23.50;;
20810;SDS011;10566;52.928;10.522;2022-11-20T09:16:44;45.43;;;24.40;;
20810;SDS011;10566;52.928;10.522;2022-11-20T09:19:11;43.73;;;23.60;;
20810;SDS011;10566;52.928;10.522;2022-11-20T09:21:37;51.63;;;27.17;;
20810;SDS011;10566;52.928;10.522;2022-11-20T09:24:04;50.00;;;26.73;;
20810;SDS011;10566;52.928;10.522;2022-11-20T09:26:30;43.70;;;24.60;;
20810;SDS011;10566;52.928;10.522;2022-11-20T09:28:56;46.50;;;24.80;;
20810;SDS011;10566;52.928;10.522;2022-11-20T09:31:23;46.20;;;27.00;;
20810;SDS011;10566;52.928;10.522;2022-11-20T09:33:50;42.17;;;24.23;;
20810;SDS011;10566;52.928;10.522;2022-11-20T09:36:16;45.33;;;24.50;;
20810;SDS011;10566;52.928;10.522;2022-11-20T09:38:43;46.17;;;23.83;;
20810;SDS011;10566;52.928;10.522;2022-11-20T09:41:15;45.47;;;24.63;;
20810;SDS011;10566;52.928;10.522;2022-11-20T09:46:20;44.37;;;23.37;;
20810;SDS011;10566;52.928;10.522;2022-11-20T09:56:33;40.53;;;21.97;;
20810;SDS011;10566;52.928;10.522;2022-11-20T09:58:59;40.13;;;22.17;;
20810;SDS011;10566;52.928;10.522;2022-11-20T10:01:31;41.90;;;22.73;;
20810;SDS011;10566;52.928;10.522;2022-11-20T10:04:08;38.03;;;20.93;;
20810;SDS011;10566;52.928;10.522;2022-11-20T10:06:41;39.70;;;21.70;;
20810;SDS011;10566;52.928;10.522;2022-11-20T10:25:24;33.43;;;19.23;;
20810;SDS011;10566;52.928;10.522;2022-11-20T10:30:30;30.97;;;18.83;;
20810;SDS011;10566;52.928;10.522;2022-11-20T10:35:44;35.73;;;18.83;;
20810;SDS011;10566;52.928;10.522;2022-11-20T10:38:21;35.00;;;20.20;;
20810;SDS011;10566;52.928;10.522;2022-11-20T10:40:51;30.60;;;18.60;;
20810;SDS011;10566;52.928;10.522;2022-11-20T10:43:19;29.40;;;18.20;;
20810;SDS011;10566;52.928;10.522;2022-11-20T10:45:48;33.80;;;18.93;;
20810;SDS011;10566;52.928;10.522;2022-11-20T10:48:23;30.07;;;18.53;;
20810;SDS011;10566;52.928;10.522;2022-11-20T10:50:55;33.43;;;18.93;;
20810;SDS011;10566;52.928;10.522;2022-11-20T10:53:28;30.13;;;18.80;;
20810;SDS011;10566;52.928;10.522;2022-11-20T10:56:05;32.20;;;19.43;;
20810;SDS011;10566;52.928;10.522;2022-11-20T10:58:40;30.90;;;19.43;;
20810;SDS011;10566;52.928;10.522;2022-11-20T11:01:18;32.47;;;19.63;;
20810;SDS011;10566;52.928;10.522;2022-11-20T11:03:48;35.80;;;20.87;;
20810;SDS011;10566;52.928;10.522;2022-11-20T11:07:01;35.77;;;20.20;;
20810;SDS011;10566;52.928;10.522;2022-11-20T11:09:02;35.07;;;20.60;;
20810;SDS011;10566;52.928;10.522;2022-11-20T11:11:30;35.07;;;20.87;;
20810;SDS011;10566;52.928;10.522;2022-11-20T11:14:04;34.47;;;20.87;;
20810;SDS011;10566;52.928;10.522;2022-11-20T11:16:31;34.87;;;21.37;;
20810;SDS011;10566;52.928;10.522;2022-11-20T11:19:04;33.90;;;19.67;;
20810;SDS011;10566;52.928;10.522;2022-11-20T11:21:30;36.57;;;20.30;;
20810;SDS011;10566;52.928;10.522;2022-11-20T11:23:59;34.80;;;20.60;;
20810;SDS011;10566;52.928;10.522;2022-11-20T11:26:26;33.93;;;19.40;;
20810;SDS011;10566;52.928;10.522;2022-11-20T11:28:52;36.13;;;20.13;;
20810;SDS011;10566;52.928;10.522;2022-11-20T11:31:23;33.97;;;20.40;;
20810;SDS011;10566;52.928;10.522;2022-11-20T11:33:49;34.07;;;19.33;;
20810;SDS011;10566;52.928;10.522;2022-11-20T11:36:20;31.73;;;18.63;;
20810;SDS011;10566;52.928;10.522;2022-11-20T11:38:50;33.57;;;18.77;;
20810;SDS011;10566;52.928;10.522;2022-11-20T11:41:19;31.20;;;18.43;;
20810;SDS011;10566;52.928;10.522;2022-11-20T11:43:52;30.83;;;18.80;;
20810;SDS011;10566;52.928;10.522;2022-11-20T11:46:38;31.07;;;18.77;;
20810;SDS011;10566;52.928;10.522;2022-11-20T11:57:05;32.43;;;17.73;;
20810;SDS011;10566;52.928;10.522;2022-11-20T11:59:53;27.07;;;16.43;;
20810;SDS011;10566;52.928;10.522;2022-11-20T12:02:27;31.63;;;17.37;;
20810;SDS011;10566;52.928;10.522;2022-11-20T12:04:59;29.30;;;17.83;;
20810;SDS011;10566;52.928;10.522;2022-11-20T12:09:52;28.43;;;17.33;;
20810;SDS011;10566;52.928;10.522;2022-11-20T12:12:20;28.97;;;16.73;;
20810;SDS011;10566;52.928;10.522;2022-11-20T12:14:49;28.27;;;17.03;;
20810;SDS011;10566;52.928;10.522;2022-11-20T12:17:17;28.03;;;16.03;;
20810;SDS011;10566;52.928;10.522;2022-11-20T12:19:47;25.67;;;15.60;;
20810;SDS011;10566;52.928;10.522;2022-11-20T12:22:21;26.57;;;15.13;;
20810;SDS011;10566;52.928;10.522;2022-11-20T12:30:00;25.83;;;14.97;;
20810;SDS011;10566;52.928;10.522;2022-11-20T12:39:50;27.43;;;13.77;;
20810;SDS011;10566;52.928;10.522;2022-11-20T12:42:23;25.47;;;13.77;;
20810;SDS011;10566;52.928;10.522;2022-11-20T12:45:22;28.10;;;15.27;;
20810;SDS011;10566;52.928;10.522;2022-11-20T12:50:28;23.20;;;13.50;;
20810;SDS011;10566;52.928;10.522;2022-11-20T12:53:04;20.10;;;12.70;;
20810;SDS011;10566;52.928;10.522;2022-11-20T12:58:18;21.33;;;11.17;;
20810;SDS011;10566;52.928;10.522;2022-11-20T13:01:09;19.37;;;10.83;;
20810;SDS011;10566;52.928;10.522;2022-11-20T13:03:58;19.50;;;10.87;;
20810;SDS011;10566;52.928;10.522;2022-11-20T13:06:27;20.00;;;11.63;;
20810;SDS011;10566;52.928;10.522;2022-11-20T13:08:54;18.97;;;11.50;;
20810;SDS011;10566;52.928;10.522;2022-11-20T13:11:27;19.93;;;11.27;;
20810;SDS011;10566;52.928;10.522;2022-11-20T13:16:50;18.47;;;11.43;;
20810;SDS011;10566;52.928;10.522;2022-11-20T13:19:24;19.63;;;11.53;;
20810;SDS011;10566;52.928;10.522;2022-11-20T13:21:51;20.23;;;11.93;;
20810;SDS011;10566;52.928;10.522;2022-11-20T13:27:05;19.97;;;12.30;;
20810;SDS011;10566;52.928;10.522;2022-11-20T13:29:32;24.13;;;12.10;;
20810;SDS011;10566;52.928;10.522;2022-11-20T13:32:06;18.73;;;11.20;;
20810;SDS011;10566;52.928;10.522;2022-11-20T13:34:33;19.67;;;12.07;;
20810;SDS011;10566;52.928;10.522;2022-11-20T13:37:00;21.80;;;11.73;;
20810;SDS011;10566;52.928;10.522;2022-11-20T13:39:35;18.47;;;11.00;;
20810;SDS011;10566;52.928;10.522;2022-11-20T13:42:25;18.87;;;11.53;;
20810;SDS011;10566;52.928;10.522;2022-11-20T13:44:51;20.17;;;11.60;;
20810;SDS011;10566;52.928;10.522;2022-11-20T13:49:47;18.47;;;11.07;;
20810;SDS011;10566;52.928;10.522;2022-11-20T13:57:34;20.93;;;11.27;;
20810;SDS011;10566;52.928;10.522;2022-11-20T14:00:16;18.27;;;10.60;;
20810;SDS011;10566;52.928;10.522;2022-11-20T14:02:43;17.67;;;10.17;;
20810;SDS011;10566;52.928;10.522;2022-11-20T14:05:20;16.80;;;10.07;;
20810;SDS011;10566;52.928;10.522;2022-11-20T14:07:47;17.67;;;10.63;;
20810;SDS011;10566;52.928;10.522;2022-11-20T14:10:20;16.33;;;9.60;;
20810;SDS011;10566;52.928;10.522;2022-11-20T14:12:50;15.70;;;9.60;;
20810;SDS011;10566;52.928;10.522;2022-11-20T14:15:29;16.07;;;9.03;;
20810;SDS011;10566;52.928;10.522;2022-11-20T14:17:55;15.13;;;9.17;;
20810;SDS011;10566;52.928;10.522;2022-11-20T14:20:23;14.87;;;8.30;;
20810;SDS011;10566;52.928;10.522;2022-11-20T14:22:50;14.03;;;8.27;;
20810;SDS011;10566;52.928;10.522;2022-11-20T14:25:20;14.30;;;8.13;;
20810;SDS011;10566;52.928;10.522;2022-11-20T14:27:53;13.97;;;8.17;;
20810;SDS011;10566;52.928;10.522;2022-11-20T14:30:21;14.90;;;8.43;;
20810;SDS011;10566;52.928;10.522;2022-11-20T14:32:48;19.27;;;9.77;;
20810;SDS011;10566;52.928;10.522;2022-11-20T14:35:19;22.03;;;11.80;;
20810;SDS011;10566;52.928;10.522;2022-11-20T14:37:46;17.30;;;9.53;;
20810;SDS011;10566;52.928;10.522;2022-11-20T14:42:53;16.00;;;9.50;;
20810;SDS011;10566;52.928;10.522;2022-11-20T14:45:19;14.60;;;8.53;;
20810;SDS011;10566;52.928;10.522;2022-11-20T14:47:46;16.03;;;8.90;;
20810;SDS011;10566;52.928;10.522;2022-11-20T14:50:12;17.10;;;9.33;;
20810;SDS011;10566;52.928;10.522;2022-11-20T14:52:40;14.97;;;9.13;;
20810;SDS011;10566;52.928;10.522;2022-11-20T14:55:24;17.87;;;9.07;;
20810;SDS011;10566;52.928;10.522;2022-11-20T14:57:54;14.97;;;9.33;;
20810;SDS011;10566;52.928;10.522;2022-11-20T15:00:20;15.57;;;8.97;;
20810;SDS011;10566;52.928;10.522;2022-11-20T15:02:50;16.60;;;9.60;;
20810;SDS011;10566;52.928;10.522;2022-11-20T15:05:17;14.27;;;8.70;;
20810;SDS011;10566;52.928;10.522;2022-11-20T15:07:44;17.00;;;9.00;;
20810;SDS011;10566;52.928;10.522;2022-11-20T15:12:45;19.33;;;9.53;;
20810;SDS011;10566;52.928;10.522;2022-11-20T15:15:11;19.30;;;10.07;;
20810;SDS011;10566;52.928;10.522;2022-11-20T15:17:38;20.17;;;10.83;;
20810;SDS011;10566;52.928;10.522;2022-11-20T15:20:08;22.90;;;11.73;;
20810;SDS011;10566;52.928;10.522;2022-11-20T15:22:36;21.57;;;11.77;;
20810;SDS011;10566;52.928;10.522;2022-11-20T15:25:07;21.60;;;12.37;;
20810;SDS011;10566;52.928;10.522;2022-11-20T15:27:33;25.13;;;13.23;;
20810;SDS011;10566;52.928;10.522;2022-11-20T15:30:00;22.67;;;12.57;;
20810;SDS011;10566;52.928;10.522;2022-11-20T15:32:26;26.13;;;13.53;;
20810;SDS011;10566;52.928;10.522;2022-11-20T15:34:52;24.20;;;14.00;;
20810;SDS011;10566;52.928;10.522;2022-11-20T15:37:18;26.47;;;13.80;;
20810;SDS011;10566;52.928;10.522;2022-11-20T15:39:44;26.30;;;14.53;;
20810;SDS011;10566;52.928;10.522;2022-11-20T15:42:10;26.63;;;14.60;;
20810;SDS011;10566;52.928;10.522;2022-11-20T15:44:36;26.80;;;14.30;;
20810;SDS011;10566;52.928;10.522;2022-11-20T15:47:02;28.73;;;15.03;;